Time;durP1;ratioP1;P1;durP2;ratioP2;P2;SDS_P1;SDS_P2;PMS_P1;PMS_P2;Temp;Humidity;BMP_temperature;BMP_pressure;BME280_temperature;BME280_humidity;BME280_pressure;Samples;Min_cycle;Max_cycle;Signal;HPM_P1;HPM_P2
2023/07/24 00:01:13;;;;;;;0.00;0.00;;;;;;;;;;5051956;28;20052;-90
2023/07/24 00:03:38;;;;;;;0.00;0.00;;;18.30;99.90;;;;;;5063414;28;20103;-89
2023/07/24 00:06:04;;;;;;;0.00;0.00;;;;;;;;;;5055010;28;20028;-90
2023/07/24 00:08:30;;;;;;;0.00;0.00;;;;;;;;;;5054662;28;20106;-91
2023/07/24 00:10:56;;;;;;;0.00;0.00;;;18.50;99.90;;;;;;5058781;28;20468;-89
2023/07/24 00:13:22;;;;;;;0.00;0.00;;;;;;;;;;5048765;28;20034;-90
2023/07/24 00:15:47;;;;;;;0.00;0.00;;;18.50;99.90;;;;;;5063263;28;20033;-90
2023/07/24 00:18:13;;;;;;;0.00;0.00;;;;;;;;;;5071614;28;20035;-90
2023/07/24 00:20:39;;;;;;;0.00;0.00;;;18.50;99.90;;;;;;5055341;28;20125;-90
2023/07/24 00:23:05;;;;;;;0.00;0.00;;;;;;;;;;5048067;28;20089;-89
2023/07/24 00:25:31;;;;;;;0.00;0.00;;;;;;;;;;5056334;28;20021;-88
2023/07/24 00:27:57;;;;;;;0.00;0.00;;;;;;;;;;5053330;28;20130;-90
2023/07/24 00:30:22;;;;;;;0.00;0.00;;;18.40;99.90;;;;;;5052290;28;20028;-89
2023/07/24 00:32:48;;;;;;;0.00;0.00;;;;;;;;;;5051939;28;20051;-91
2023/07/24 00:35:14;;;;;;;0.00;0.00;;;;;;;;;;5057637;28;20033;-89
2023/07/24 00:37:40;;;;;;;0.00;0.00;;;;;;;;;;5059075;28;20051;-90
2023/07/24 00:40:06;;;;;;;0.00;0.00;;;18.50;99.90;;;;;;5050300;28;20479;-90
2023/07/24 00:42:32;;;;;;;0.00;0.00;;;18.50;99.90;;;;;;5054453;28;20519;-90
2023/07/24 00:44:57;;;;;;;0.00;0.00;;;;;;;;;;5052429;28;20021;-91
2023/07/24 00:47:26;;;;;;;0.00;0.00;;;18.40;99.90;;;;;;5056645;28;20021;-91
2023/07/24 00:49:51;;;;;;;0.00;0.00;;;18.40;99.90;;;;;;5056552;28;20028;-89
2023/07/24 00:52:17;;;;;;;0.00;0.00;;;;;;;;;;5054509;28;20398;-90
2023/07/24 00:54:44;;;;;;;0.00;0.00;;;18.50;99.90;;;;;;5052882;28;20038;-91
2023/07/24 00:57:10;;;;;;;0.00;0.00;;;18.50;99.90;;;;;;5053112;28;20479;-90
2023/07/24 00:59:36;;;;;;;0.00;0.00;;;18.50;99.90;;;;;;5049848;28;20036;-90
2023/07/24 01:02:02;;;;;;;0.00;0.00;;;;;;;;;;5049476;28;20025;-91
2023/07/24 01:04:28;;;;;;;0.00;0.00;;;;;;;;;;5054652;28;20056;-88
2023/07/24 01:06:54;;;;;;;0.00;0.00;;;;;;;;;;5057131;28;20264;-91
2023/07/24 01:09:19;;;;;;;0.00;0.00;;;18.50;99.90;;;;;;5042102;28;20097;-91
2023/07/24 01:11:58;;;;;;;0.00;0.00;;;18.50;99.90;;;;;;5049458;28;20439;-91
2023/07/24 01:14:40;;;;;;;0.00;0.00;;;18.50;99.90;;;;;;5052205;28;20048;-90
2023/07/24 01:17:08;;;;;;;0.00;0.00;;;18.40;99.90;;;;;;5047885;28;20048;-92
2023/07/24 01:19:42;;;;;;;0.00;0.00;;;18.40;99.90;;;;;;5052784;28;20020;-90
2023/07/24 01:22:42;;;;;;;0.00;0.00;;;18.40;99.90;;;;;;5054630;28;20095;-90
2023/07/24 01:25:22;;;;;;;0.00;0.00;;;18.30;99.90;;;;;;5029946;28;20041;-89
2023/07/24 01:27:48;;;;;;;0.00;0.00;;;18.40;99.90;;;;;;5054767;28;20421;-91
2023/07/24 01:30:18;;;;;;;0.00;0.00;;;18.40;99.90;;;;;;5045023;28;20071;-90
2023/07/24 01:32:44;;;;;;;0.00;0.00;;;18.50;99.90;;;;;;5049573;28;20055;-90
2023/07/24 01:35:10;;;;;;;0.00;0.00;;;;;;;;;;5053887;28;20029;-92
2023/07/24 01:37:39;;;;;;;0.00;0.00;;;18.50;99.90;;;;;;5051722;28;20028;-90
2023/07/24 01:40:06;;;;;;;0.00;0.00;;;18.50;99.90;;;;;;5050318;28;20024;-90
2023/07/24 01:42:32;;;;;;;0.00;0.00;;;18.50;99.90;;;;;;5053826;28;20828;-89
2023/07/24 01:44:57;;;;;;;0.00;0.00;;;18.40;99.90;;;;;;5049460;28;20067;-91
2023/07/24 01:47:23;;;;;;;0.00;0.00;;;;;;;;;;5049418;28;20088;-90
2023/07/24 01:49:49;;;;;;;0.00;0.00;;;;;;;;;;5053958;28;20029;-91
2023/07/24 01:52:15;;;;;;;0.00;0.00;;;;;;;;;;5049365;28;20208;-90
2023/07/24 01:54:41;;;;;;;0.00;0.00;;;18.30;99.90;;;;;;5055475;28;20400;-91
2023/07/24 01:57:07;;;;;;;0.00;0.00;;;;;;;;;;5047414;28;20024;-90
2023/07/24 01:59:32;;;;;;;0.00;0.00;;;18.30;99.90;;;;;;5051710;28;20052;-91
2023/07/24 02:01:58;;;;;;;0.00;0.00;;;;;;;;;;5053143;28;20025;-91
2023/07/24 02:04:24;;;;;;;0.00;0.00;;;18.30;99.90;;;;;;5056197;28;20025;-90
2023/07/24 02:06:50;;;;;;;0.00;0.00;;;;;;;;;;5057455;28;20020;-90
2023/07/24 02:09:18;;;;;;;0.00;0.00;;;18.20;99.90;;;;;;5049940;28;20143;-90
2023/07/24 02:11:44;;;;;;;0.00;0.00;;;18.10;99.90;;;;;;5057086;28;20032;-91
2023/07/24 02:14:13;;;;;;;0.00;0.00;;;18.30;99.90;;;;;;5049797;28;20040;-90
2023/07/24 02:16:39;;;;;;;0.00;0.00;;;18.30;99.90;;;;;;5051678;28;20029;-91
2023/07/24 02:19:05;;;;;;;0.00;0.00;;;18.30;99.90;;;;;;5047943;28;20039;-91
2023/07/24 02:21:31;;;;;;;0.00;0.00;;;18.30;99.90;;;;;;5054353;28;20399;-91
2023/07/24 02:23:56;;;;;;;0.00;0.00;;;;;;;;;;5056188;28;20025;-90
2023/07/24 02:26:22;;;;;;;0.00;0.00;;;18.10;99.90;;;;;;5055710;28;20399;-90
2023/07/24 02:28:48;;;;;;;0.00;0.00;;;;;;;;;;5059680;28;20475;-91
2023/07/24 02:31:14;;;;;;;0.00;0.00;;;;;;;;;;5046340;28;20072;-90
2023/07/24 02:33:39;;;;;;;0.00;0.00;;;17.90;99.90;;;;;;5052038;28;20033;-90
2023/07/24 02:36:05;;;;;;;0.00;0.00;;;;;;;;;;5055207;28;20050;-91
2023/07/24 02:38:31;;;;;;;0.00;0.00;;;;;;;;;;5056085;28;20036;-91
2023/07/24 02:40:57;;;;;;;0.00;0.00;;;;;;;;;;5052037;28;20090;-89
2023/07/24 02:43:23;;;;;;;0.00;0.00;;;;;;;;;;5069596;28;20048;-90
2023/07/24 02:45:49;;;;;;;0.00;0.00;;;;;;;;;;5055029;28;20028;-90
2023/07/24 02:48:15;;;;;;;0.00;0.00;;;;;;;;;;5055265;28;20025;-90
2023/07/24 02:50:41;;;;;;;0.00;0.00;;;;;;;;;;5054548;28;20162;-90
2023/07/24 02:58:16;;;;;;;0.00;0.00;;;;;;;;;;5067341;28;20056;-90
2023/07/24 03:00:42;;;;;;;0.00;0.00;;;;;;;;;;5049180;28;20033;-91
2023/07/24 03:03:08;;;;;;;0.00;0.00;;;;;;;;;;5049692;28;20021;-90
2023/07/24 03:05:36;;;;;;;0.00;0.00;;;17.80;99.90;;;;;;5054062;28;20563;-90
2023/07/24 03:08:05;;;;;;;0.00;0.00;;;17.70;99.90;;;;;;5048938;28;20027;-90
2023/07/24 03:10:31;;;;;;;0.00;0.00;;;;;;;;;;5048297;28;20032;-89
2023/07/24 03:13:00;;;;;;;0.00;0.00;;;17.70;99.90;;;;;;5047935;28;20271;-90
2023/07/24 03:15:26;;;;;;;0.00;0.00;;;;;;;;;;5048701;28;20052;-90
2023/07/24 03:17:52;;;;;;;0.00;0.00;;;;;;;;;;5052838;28;20033;-90
2023/07/24 03:20:21;;;;;;;0.00;0.00;;;17.80;99.90;;;;;;5049147;28;20025;-88
2023/07/24 03:22:47;;;;;;;;;;;18.10;99.90;;;;;;5049989;28;20026;-91
2023/07/24 03:25:13;;;;;;;0.00;0.00;;;;;;;;;;5054614;28;19912;-90
2023/07/24 03:27:39;;;;;;;0.00;0.00;;;;;;;;;;5049360;28;20033;-90
2023/07/24 03:30:06;;;;;;;0.00;0.00;;;;;;;;;;5052756;28;20546;-90
2023/07/24 03:32:31;;;;;;;0.00;0.00;;;;;;;;;;5052409;28;20025;-90
2023/07/24 03:34:57;;;;;;;0.00;0.00;;;;;;;;;;5056362;28;20025;-91
2023/07/24 03:37:23;;;;;;;0.00;0.00;;;;;;;;;;5057285;28;20027;-90
2023/07/24 03:39:49;;;;;;;0.00;0.00;;;;;;;;;;5058482;28;20016;-90
2023/07/24 03:42:28;;;;;;;0.00;0.00;;;17.50;99.90;;;;;;5053950;28;20048;-90
2023/07/24 03:44:55;;;;;;;0.00;0.00;;;;;;;;;;5057858;28;20120;-90
2023/07/24 03:47:21;;;;;;;0.00;0.00;;;;;;;;;;5046271;28;20025;-90
2023/07/24 03:49:46;;;;;;;0.00;0.00;;;;;;;;;;5070846;28;20040;-91
2023/07/24 03:52:12;;;;;;;0.00;0.00;;;;;;;;;;5050099;28;20029;-90
2023/07/24 03:54:38;;;;;;;0.00;0.00;;;;;;;;;;5056133;28;20051;-89
2023/07/24 03:57:05;;;;;;;0.00;0.00;;;;;;;;;;5055624;28;20037;-90
2023/07/24 03:59:31;;;;;;;0.00;0.00;;;17.70;99.90;;;;;;5050486;28;20029;-90
2023/07/24 04:01:57;;;;;;;0.00;0.00;;;;;;;;;;5048318;28;20041;-88
2023/07/24 04:04:23;;;;;;;0.00;0.00;;;;;;;;;;5045399;28;20056;-89
2023/07/24 04:06:49;;;;;;;0.00;0.00;;;;;;;;;;5072733;28;20035;-91
2023/07/24 04:09:15;;;;;;;0.00;0.00;;;;;;;;;;5051772;28;20037;-92
2023/07/24 04:11:45;;;;;;;0.00;0.00;;;17.90;99.90;;;;;;5052903;28;20037;-89
2023/07/24 04:14:11;;;;;;;0.00;0.00;;;;;;;;;;5057572;28;20033;-91
2023/07/24 04:16:37;;;;;;;0.00;0.00;;;;;;;;;;5054313;28;20025;-91
2023/07/24 04:19:03;;;;;;;0.00;0.00;;;17.90;99.90;;;;;;5050264;28;20071;-90
2023/07/24 04:21:29;;;;;;;0.00;0.00;;;;;;;;;;5054643;28;20021;-89
2023/07/24 04:23:55;;;;;;;0.00;0.00;;;;;;;;;;5048198;28;20570;-85
2023/07/24 04:26:21;;;;;;;0.00;0.00;;;;;;;;;;5058300;28;20033;-91
2023/07/24 04:28:49;;;;;;;0.00;0.00;;;;;;;;;;5056449;28;20033;-89
2023/07/24 04:31:15;;;;;;;0.00;0.00;;;;;;;;;;5049440;28;20036;-91
2023/07/24 04:33:41;;;;;;;0.00;0.00;;;;;;;;;;5054967;28;20033;-90
2023/07/24 04:36:07;;;;;;;0.00;0.00;;;;;;;;;;5059919;28;20035;-91
2023/07/24 04:38:33;;;;;;;0.00;0.00;;;;;;;;;;5052578;28;20025;-90
2023/07/24 04:41:02;;;;;;;0.00;0.00;;;18.10;99.90;;;;;;5058308;28;20048;-91
2023/07/24 04:43:29;;;;;;;0.00;0.00;;;18.20;99.90;;;;;;5058216;28;20422;-88
2023/07/24 04:45:55;;;;;;;0.00;0.00;;;;;;;;;;5054154;28;20029;-90
2023/07/24 04:48:21;;;;;;;0.00;0.00;;;;;;;;;;5054287;28;20035;-88
2023/07/24 04:50:47;;;;;;;0.00;0.00;;;;;;;;;;5048317;28;20033;-90
2023/07/24 04:53:13;;;;;;;0.00;0.00;;;;;;;;;;5068955;28;20500;-91
2023/07/24 04:55:39;;;;;;;0.00;0.00;;;;;;;;;;5052821;28;20037;-90
2023/07/24 04:58:05;;;;;;;0.00;0.00;;;;;;;;;;5049225;28;20032;-90
2023/07/24 05:00:31;;;;;;;0.00;0.00;;;;;;;;;;5053685;28;20048;-90
2023/07/24 05:02:57;;;;;;;0.00;0.00;;;;;;;;;;5051381;28;20037;-91
2023/07/24 05:05:22;;;;;;;0.00;0.00;;;;;;;;;;5059621;28;20041;-87
2023/07/24 05:07:48;;;;;;;0.00;0.00;;;;;;;;;;5045572;28;20038;-90
2023/07/24 05:10:14;;;;;;;0.00;0.00;;;;;;;;;;5055014;28;20031;-91
2023/07/24 05:12:43;;;;;;;0.00;0.00;;;18.80;99.90;;;;;;5054384;28;20033;-88
2023/07/24 05:15:09;;;;;;;0.00;0.00;;;;;;;;;;5048932;28;20116;-85
2023/07/24 05:17:35;;;;;;;0.00;0.00;;;;;;;;;;5047014;28;20380;-88
2023/07/24 05:20:02;;;;;;;0.00;0.00;;;;;;;;;;5051163;28;20117;-88
2023/07/24 05:22:27;;;;;;;0.00;0.00;;;18.80;99.90;;;;;;5054587;28;20021;-91
2023/07/24 05:24:53;;;;;;;0.00;0.00;;;19.10;99.90;;;;;;5054535;28;20490;-89
2023/07/24 05:27:19;;;;;;;0.00;0.00;;;;;;;;;;5055317;28;20021;-87
2023/07/24 05:29:45;;;;;;;0.00;0.00;;;;;;;;;;5052492;28;20036;-88
2023/07/24 05:32:11;;;;;;;0.00;0.00;;;;;;;;;;5052404;28;20096;-88
2023/07/24 05:34:37;;;;;;;0.00;0.00;;;;;;;;;;5048578;28;20043;-86
2023/07/24 05:37:02;;;;;;;0.00;0.00;;;18.80;99.90;;;;;;5056801;28;20036;-89
2023/07/24 05:39:29;;;;;;;0.00;0.00;;;18.70;99.90;;;;;;5052429;28;20025;-90
2023/07/24 05:41:55;;;;;;;0.00;0.00;;;;;;;;;;5051873;28;20059;-89
2023/07/24 05:44:21;;;;;;;0.00;0.00;;;;;;;;;;5049137;28;20035;-88
2023/07/24 05:46:47;;;;;;;0.00;0.00;;;;;;;;;;5057667;28;20025;-87
2023/07/24 05:49:13;;;;;;;0.00;0.00;;;;;;;;;;5044362;28;20037;-87
2023/07/24 05:51:39;;;;;;;0.00;0.00;;;;;;;;;;5048523;28;20067;-90
2023/07/24 05:54:05;;;;;;;0.00;0.00;;;;;;;;;;5049822;28;20048;-85
2023/07/24 05:56:31;;;;;;;0.00;0.00;;;;;;;;;;5045652;28;20029;-89
2023/07/24 05:58:56;;;;;;;0.00;0.00;;;18.40;99.90;;;;;;5057264;28;20025;-87
2023/07/24 06:01:22;;;;;;;0.00;0.00;;;;;;;;;;5048427;28;20040;-87
2023/07/24 06:03:48;;;;;;;0.00;0.00;;;;;;;;;;5057906;28;20020;-87
2023/07/24 06:06:14;;;;;;;0.00;0.00;;;;;;;;;;5068419;28;20047;-89
2023/07/24 06:08:40;;;;;;;0.00;0.00;;;;;;;;;;5053078;28;20033;-91
2023/07/24 06:11:07;;;;;;;0.00;0.00;;;18.30;99.90;;;;;;5052671;28;20039;-87
2023/07/24 06:13:33;;;;;;;0.00;0.00;;;;;;;;;;5052626;28;20021;-91
2023/07/24 06:15:59;;;;;;;0.00;0.00;;;;;;;;;;5051526;28;20056;-90
2023/07/24 06:18:25;;;;;;;0.00;0.00;;;;;;;;;;5058462;28;20048;-90
2023/07/24 06:20:54;;;;;;;0.00;0.00;;;18.20;99.90;;;;;;5049202;28;20029;-87
2023/07/24 06:23:20;;;;;;;0.00;0.00;;;;;;;;;;5046949;28;20174;-89
2023/07/24 06:25:49;;;;;;;0.00;0.00;;;;;;;;;;5047518;28;20283;-90
2023/07/24 06:28:15;;;;;;;0.00;0.00;;;;;;;;;;5049874;28;20044;-87
2023/07/24 06:30:44;;;;;;;0.00;0.00;;;;;;;;;;5050614;28;20037;-88
2023/07/24 06:33:12;;;;;;;0.00;0.00;;;;;;;;;;5063717;28;20025;-89
2023/07/24 06:35:38;;;;;;;0.00;0.00;;;;;;;;;;5058968;28;20114;-89
2023/07/24 06:38:04;;;;;;;0.00;0.00;;;;;;;;;;5058146;28;20100;-89
2023/07/24 06:40:30;;;;;;;0.00;0.00;;;;;;;;;;5052707;28;20025;-88
2023/07/24 06:42:58;;;;;;;0.00;0.00;;;;;;;;;;5053696;28;20043;-89
2023/07/24 06:45:24;;;;;;;0.00;0.00;;;;;;;;;;5050543;28;20090;-86
2023/07/24 06:47:50;;;;;;;0.00;0.00;;;;;;;;;;5053211;28;20036;-89
2023/07/24 06:50:16;;;;;;;0.00;0.00;;;;;;;;;;5049259;28;20032;-89
2023/07/24 06:52:50;;;;;;;0.00;0.00;;;;;;;;;;5053225;28;20036;-87
2023/07/24 06:55:16;;;;;;;0.00;0.00;;;;;;;;;;5058736;28;20029;-90
2023/07/24 06:57:42;;;;;;;0.00;0.00;;;;;;;;;;5050308;28;20037;-91
2023/07/24 07:00:11;;;;;;;0.00;0.00;;;;;;;;;;5050692;28;20020;-90
2023/07/24 07:02:37;;;;;;;0.00;0.00;;;;;;;;;;5050144;28;20032;-88
2023/07/24 07:05:03;;;;;;;0.00;0.00;;;;;;;;;;5050310;28;20033;-90
2023/07/24 07:07:29;;;;;;;0.00;0.00;;;;;;;;;;5051317;28;20028;-90
2023/07/24 07:09:56;;;;;;;0.00;0.00;;;18.90;99.90;;;;;;5047551;28;20033;-91
2023/07/24 07:12:22;;;;;;;0.00;0.00;;;;;;;;;;5050274;28;20033;-90
2023/07/24 07:14:48;;;;;;;0.00;0.00;;;;;;;;;;5050485;28;20494;-91
2023/07/24 07:17:14;;;;;;;0.00;0.00;;;;;;;;;;5050352;28;20025;-90
2023/07/24 07:19:40;;;;;;;0.00;0.00;;;;;;;;;;5051293;28;20035;-90
2023/07/24 07:22:06;;;;;;;0.00;0.00;;;;;;;;;;5053751;28;20021;-91
2023/07/24 07:24:32;;;;;;;0.00;0.00;;;;;;;;;;5050578;28;20093;-89
2023/07/24 07:26:58;;;;;;;0.00;0.00;;;;;;;;;;5049730;28;20025;-89
2023/07/24 07:29:24;;;;;;;0.00;0.00;;;;;;;;;;5047738;28;20111;-90
2023/07/24 07:31:50;;;;;;;0.00;0.00;;;;;;;;;;5056257;28;20029;-91
2023/07/24 07:34:16;;;;;;;0.00;0.00;;;;;;;;;;5050149;28;20036;-88
2023/07/24 07:36:42;;;;;;;0.00;0.00;;;;;;;;;;5048745;28;20044;-90
2023/07/24 07:39:09;;;;;;;0.00;0.00;;;;;;;;;;5050911;28;20033;-90
2023/07/24 07:41:35;;;;;;;0.00;0.00;;;;;;;;;;5048105;28;20055;-89
2023/07/24 07:44:01;;;;;;;0.00;0.00;;;;;;;;;;5068848;28;20028;-90
2023/07/24 07:46:27;;;;;;;0.00;0.00;;;;;;;;;;5058215;28;20057;-88
2023/07/24 07:48:53;;;;;;;0.00;0.00;;;;;;;;;;5049008;28;20041;-90
2023/07/24 07:51:19;;;;;;;0.00;0.00;;;;;;;;;;5077272;28;20068;-89
2023/07/24 07:53:45;;;;;;;0.00;0.00;;;;;;;;;;5055146;28;20036;-90
2023/07/24 07:56:11;;;;;;;0.00;0.00;;;;;;;;;;5061960;28;20037;-91
2023/07/24 07:58:37;;;;;;;0.00;0.00;;;;;;;;;;5051693;28;20033;-90
2023/07/24 08:01:06;;;;;;;0.00;0.00;;;20.90;99.90;;;;;;5056093;28;20028;-91
2023/07/24 08:03:33;;;;;;;0.00;0.00;;;;;;;;;;5061187;28;20032;-92
2023/07/24 08:05:58;;;;;;;0.00;0.00;;;;;;;;;;5054000;28;20063;-90
2023/07/24 08:08:25;;;;;;;0.00;0.00;;;;;;;;;;5054627;28;20414;-91
2023/07/24 08:10:51;;;;;;;0.00;0.00;;;;;;;;;;5050930;28;20033;-91
2023/07/24 08:13:16;;;;;;;0.00;0.00;;;;;;;;;;5050415;28;20025;-90
2023/07/24 08:15:42;;;;;;;0.00;0.00;;;;;;;;;;5067234;28;20110;-90
2023/07/24 08:18:08;;;;;;;0.00;0.00;;;;;;;;;;5078195;28;20097;-90
2023/07/24 08:20:38;;;;;;;0.00;0.00;;;21.70;99.90;;;;;;5059575;28;20040;-90
2023/07/24 08:23:04;;;;;;;0.00;0.00;;;;;;;;;;5058247;28;20487;-90
2023/07/24 08:25:30;;;;;;;0.00;0.00;;;;;;;;;;5063970;28;20091;-90
2023/07/24 08:27:59;;;;;;;0.00;0.00;;;21.80;99.90;;;;;;5051313;28;20025;-91
2023/07/24 08:30:57;;;;;;;0.00;0.00;;;21.90;99.90;;;;;;5064039;28;20020;-90
2023/07/24 09:43:38;;;;;;;0.00;0.00;;;23.10;99.90;;;;;;5037717;28;20045;-88
2023/07/24 09:46:08;;;;;;;0.00;0.00;;;23.10;99.90;;;;;;5018921;28;20033;-87
2023/07/24 09:48:35;;;;;;;0.00;0.00;;;24.50;99.90;;;;;;5030617;28;20047;-90
2023/07/24 09:51:01;;;;;;;0.00;0.00;;;25.60;99.90;;;;;;5011826;28;20017;-91
2023/07/24 09:53:53;;;;;;;0.00;0.00;;;24.70;99.90;;;;;;5031155;28;20033;-90
2023/07/24 09:56:20;;;;;;;0.00;0.00;;;23.40;99.90;;;;;;5015698;28;20033;-87
2023/07/24 09:58:48;;;;;;;0.00;0.00;;;23.60;99.90;;;;;;5019590;28;20036;-88
2023/07/24 10:01:15;;;;;;;0.00;0.00;;;;;;;;;;5020643;28;20032;-89
2023/07/24 10:03:46;;;;;;;0.00;0.00;;;23.60;99.90;;;;;;5020846;28;20021;-90
2023/07/24 10:06:12;;;;;;;0.00;0.00;;;;;;;;;;5020073;28;20021;-88
2023/07/24 10:08:39;;;;;;;0.00;0.00;;;23.50;99.90;;;;;;5034687;28;20035;-88
2023/07/24 10:11:05;;;;;;;0.00;0.00;;;;;;;;;;5042707;28;20029;-90
2023/07/24 10:13:36;;;;;;;0.00;0.00;;;24.10;99.90;;;;;;5022317;28;20025;-90
2023/07/24 10:16:03;;;;;;;0.00;0.00;;;;;;;;;;5031061;28;20047;-89
2023/07/24 10:18:30;;;;;;;0.00;0.00;;;23.90;99.90;;;;;;5019261;28;20506;-88
2023/07/24 10:21:06;;;;;;;0.00;0.00;;;27.10;99.90;;;;;;5036305;28;20032;-89
2023/07/24 10:23:35;;;;;;;0.00;0.00;;;23.40;99.90;;;;;;5009376;28;20406;-91
2023/07/24 10:26:05;;;;;;;0.00;0.00;;;23.30;99.90;;;;;;5017448;28;20032;-90
2023/07/24 10:28:34;;;;;;;0.00;0.00;;;23.60;99.90;;;;;;5025576;28;20397;-89
2023/07/24 10:31:01;;;;;;;0.00;0.00;;;23.60;99.90;;;;;;5019519;28;20025;-89
2023/07/24 10:33:30;;;;;;;0.00;0.00;;;23.60;99.90;;;;;;4999188;28;20030;-89
2023/07/24 10:36:07;;;;;;;;;;;24.00;99.90;;;;;;5006719;28;20030;-88
2023/07/24 10:38:39;;;;;;;0.00;0.00;;;23.50;99.90;;;;;;5022947;28;19915;-89
2023/07/24 10:41:06;;;;;;;0.00;0.00;;;23.50;99.90;;;;;;5020959;28;20037;-89
2023/07/24 10:43:44;;;;;;;0.00;0.00;;;23.50;99.90;;;;;;5018201;28;20049;-89
2023/07/24 10:46:10;;;;;;;0.00;0.00;;;;;;;;;;5019838;28;20021;-88
2023/07/24 10:48:36;;;;;;;0.00;0.00;;;23.10;99.90;;;;;;5013989;28;20022;-91
2023/07/24 10:51:08;;;;;;;0.00;0.00;;;23.50;99.90;;;;;;5016046;28;20026;-88
2023/07/24 10:53:36;;;;;;;0.00;0.00;;;23.50;99.90;;;;;;5016485;28;20025;-89
2023/07/24 10:56:02;;;;;;;0.00;0.00;;;23.50;99.90;;;;;;5013430;28;20026;-88
2023/07/24 10:58:28;;;;;;;0.00;0.00;;;;;;;;;;5014531;28;20116;-88
2023/07/24 11:00:55;;;;;;;0.00;0.00;;;;;;;;;;5014393;28;20116;-86
2023/07/24 11:03:21;;;;;;;0.00;0.00;;;;;;;;;;5013857;28;20055;-89
2023/07/24 11:05:48;;;;;;;0.00;0.00;;;;;;;;;;5016213;28;20034;-87
2023/07/24 11:08:15;;;;;;;0.00;0.00;;;23.70;99.90;;;;;;5017087;28;20025;-89
2023/07/24 11:10:48;;;;;;;0.00;0.00;;;24.20;99.90;;;;;;5010136;28;20025;-88
2023/07/24 11:13:15;;;;;;;0.00;0.00;;;23.30;99.90;;;;;;5024085;28;20024;-88
2023/07/24 11:15:41;;;;;;;0.00;0.00;;;;;;;;;;5020919;28;20052;-88
2023/07/24 11:18:10;;;;;;;0.00;0.00;;;23.20;99.90;;;;;;5016617;28;20037;-90
2023/07/24 11:20:38;;;;;;;0.00;0.00;;;22.80;99.90;;;;;;5017880;28;20489;-90
2023/07/24 11:23:04;;;;;;;0.00;0.00;;;22.70;99.90;;;;;;4998550;28;20034;-89
2023/07/24 11:25:30;;;;;;;0.00;0.00;;;;;;;;;;5020919;28;20109;-87
2023/07/24 11:27:56;;;;;;;0.00;0.00;;;22.90;99.90;;;;;;5029938;28;20025;-90
2023/07/24 11:30:22;;;;;;;0.00;0.00;;;;;;;;;;5020725;28;20025;-88
2023/07/24 11:32:48;;;;;;;0.00;0.00;;;23.40;99.90;;;;;;5020420;28;20026;-89
2023/07/24 11:35:14;;;;;;;0.00;0.00;;;23.40;99.90;;;;;;5017211;28;20049;-88
2023/07/24 11:37:40;;;;;;;0.00;0.00;;;;;;;;;;5016397;28;20053;-86
2023/07/24 11:40:10;;;;;;;0.00;0.00;;;23.30;99.90;;;;;;5017465;28;20509;-86
2023/07/24 11:42:39;;;;;;;;;;;23.30;99.90;;;;;;5032986;28;20078;-90
2023/07/24 11:45:09;;;;;;;;;;;23.40;99.90;;;;;;5032101;28;19909;-87
2023/07/24 11:47:47;;;;;;;0.00;0.00;;;23.40;99.90;;;;;;5038759;28;19909;-88
2023/07/24 11:50:13;;;;;;;0.00;0.00;;;24.40;99.90;;;;;;5042090;28;20025;-88
2023/07/24 11:52:43;;;;;;;0.00;0.00;;;23.10;99.90;;;;;;5034624;28;20120;-89
2023/07/24 11:55:13;;;;;;;0.00;0.00;;;23.00;99.90;;;;;;5021773;28;20025;-88
2023/07/24 11:57:39;;;;;;;0.00;0.00;;;23.00;99.90;;;;;;5020807;28;20029;-90
2023/07/24 12:00:16;;;;;;;0.00;0.00;;;24.00;99.90;;;;;;5021088;28;20513;-88
2023/07/24 12:02:42;;;;;;;0.00;0.00;;;;;;;;;;5021857;28;20113;-89
2023/07/24 12:05:10;;;;;;;0.00;0.00;;;23.50;99.90;;;;;;5041751;28;20017;-88
2023/07/24 12:07:36;;;;;;;0.00;0.00;;;;;;;;;;5025556;28;20017;-89
2023/07/24 12:10:04;;;;;;;0.00;0.00;;;23.60;99.90;;;;;;5020025;28;20022;-89
2023/07/24 12:12:47;;;;;;;0.00;0.00;;;23.50;99.90;;;;;;5019551;28;20037;-87
2023/07/24 12:15:14;;;;;;;0.00;0.00;;;23.50;99.90;;;;;;5021467;28;20053;-90
2023/07/24 12:17:40;;;;;;;0.00;0.00;;;;;;;;;;5019563;28;20501;-89
2023/07/24 12:20:08;;;;;;;0.00;0.00;;;23.40;99.90;;;;;;5035727;28;20033;-89
2023/07/24 12:22:34;;;;;;;0.00;0.00;;;23.30;99.90;;;;;;5027797;28;20017;-89
2023/07/24 12:25:01;;;;;;;0.00;0.00;;;23.60;99.90;;;;;;5019785;28;20024;-90
2023/07/24 12:27:27;;;;;;;0.00;0.00;;;23.60;99.90;;;;;;5020182;28;20028;-90
2023/07/24 12:29:53;;;;;;;0.00;0.00;;;;;;;;;;5019203;28;20025;-89
2023/07/24 12:32:20;;;;;;;0.00;0.00;;;;;;;;;;5032502;28;20032;-89
2023/07/24 12:34:50;;;;;;;0.00;0.00;;;24.00;99.90;;;;;;5028815;28;20034;-91
2023/07/24 12:37:16;;;;;;;0.00;0.00;;;;;;;;;;5019979;28;20485;-90
2023/07/24 12:39:42;;;;;;;0.00;0.00;;;;;;;;;;5019372;28;20444;-91
2023/07/24 12:42:08;;;;;;;0.00;0.00;;;;;;;;;;5019638;28;20053;-91
2023/07/24 12:44:34;;;;;;;0.00;0.00;;;;;;;;;;5019964;28;20017;-90
2023/07/24 12:47:00;;;;;;;0.00;0.00;;;;;;;;;;5019933;28;20052;-90
2023/07/24 12:49:26;;;;;;;0.00;0.00;;;;;;;;;;5019258;28;20026;-90
2023/07/24 12:51:52;;;;;;;0.00;0.00;;;;;;;;;;5019426;28;20025;-91
2023/07/24 12:54:19;;;;;;;0.00;0.00;;;;;;;;;;5019760;28;20029;-89
2023/07/24 12:56:45;;;;;;;0.00;0.00;;;;;;;;;;5019280;28;20049;-89
2023/07/24 12:59:11;;;;;;;0.00;0.00;;;;;;;;;;5018828;28;20029;-89
2023/07/24 13:01:37;;;;;;;0.00;0.00;;;;;;;;;;5019463;28;20037;-90
2023/07/24 13:04:03;;;;;;;0.00;0.00;;;;;;;;;;5013656;28;20479;-90
2023/07/24 13:06:29;;;;;;;0.00;0.00;;;;;;;;;;5021791;28;20026;-89
2023/07/24 13:08:55;;;;;;;0.00;0.00;;;;;;;;;;5019230;28;20029;-90
2023/07/24 13:11:21;;;;;;;0.00;0.00;;;;;;;;;;5037602;28;20436;-91
2023/07/24 13:13:47;;;;;;;0.00;0.00;;;;;;;;;;5039384;28;20030;-90
2023/07/24 13:16:13;;;;;;;0.00;0.00;;;;;;;;;;5022191;28;20021;-88
2023/07/24 13:18:39;;;;;;;0.00;0.00;;;21.70;99.90;;;;;;5020113;28;20025;-90
2023/07/24 13:21:06;;;;;;;0.00;0.00;;;;;;;;;;5021343;28;20036;-89
2023/07/24 13:23:32;;;;;;;0.00;0.00;;;;;;;;;;5026385;28;20071;-91
2023/07/24 13:25:58;;;;;;;0.00;0.00;;;;;;;;;;5026262;28;20026;-92
2023/07/24 13:28:24;;;;;;;0.00;0.00;;;;;;;;;;5025014;28;20032;-90
2023/07/24 13:30:50;;;;;;;0.00;0.00;;;;;;;;;;5024773;28;20041;-89
2023/07/24 13:33:16;;;;;;;0.00;0.00;;;;;;;;;;5022706;28;20029;-88
2023/07/24 13:35:42;;;;;;;0.00;0.00;;;;;;;;;;5029974;28;20044;-91
2023/07/24 13:38:08;;;;;;;0.00;0.00;;;20.30;99.90;;;;;;5025113;28;20021;-91
2023/07/24 13:40:34;;;;;;;0.00;0.00;;;20.20;99.90;;;;;;5027305;28;20405;-90
2023/07/24 13:43:00;;;;;;;0.00;0.00;;;23.10;99.90;;;;;;5026983;28;20036;-91
2023/07/24 13:45:27;;;;;;;0.00;0.00;;;;;;;;;;5023452;28;20429;-92
2023/07/24 13:47:52;;;;;;;0.00;0.00;;;;;;;;;;5024286;28;20075;-90
2023/07/24 13:50:18;;;;;;;0.00;0.00;;;;;;;;;;5021733;28;20037;-91
2023/07/24 13:52:44;;;;;;;0.00;0.00;;;;;;;;;;5036108;28;20025;-90
2023/07/24 13:55:14;;;;;;;0.00;0.00;;;;;;;;;;5023631;28;20041;-90
2023/07/24 13:57:39;;;;;;;0.00;0.00;;;;;;;;;;5012190;28;20037;-91
2023/07/24 14:00:06;;;;;;;0.00;0.00;;;22.00;99.90;;;;;;5023002;28;20033;-89
2023/07/24 14:02:31;;;;;;;0.00;0.00;;;22.30;99.90;;;;;;5027841;28;20036;-89
2023/07/24 14:04:57;;;;;;;0.00;0.00;;;;;;;;;;5025631;28;20034;-86
2023/07/24 14:07:23;;;;;;;0.00;0.00;;;22.70;99.90;;;;;;5022508;28;20026;-88
2023/07/24 14:09:49;;;;;;;0.00;0.00;;;;;;;;;;5025751;28;20045;-89
2023/07/24 14:12:15;;;;;;;0.00;0.00;;;;;;;;;;5027765;28;20057;-86
2023/07/24 14:14:41;;;;;;;0.00;0.00;;;;;;;;;;5028498;28;20060;-85
2023/07/24 14:17:07;;;;;;;0.00;0.00;;;;;;;;;;5028397;28;20398;-87
2023/07/24 14:19:33;;;;;;;0.00;0.00;;;;;;;;;;5041273;28;20661;-86
2023/07/24 14:21:58;;;;;;;0.00;0.00;;;23.20;99.90;;;;;;5023724;28;20040;-87
2023/07/24 14:24:24;;;;;;;0.00;0.00;;;;;;;;;;5023275;28;20028;-86
2023/07/24 14:26:50;;;;;;;0.00;0.00;;;;;;;;;;5027658;28;20375;-88
2023/07/24 14:29:18;;;;;;;0.00;0.00;;;22.60;99.90;;;;;;5020792;28;20038;-87
2023/07/24 14:31:44;;;;;;;0.00;0.00;;;25.00;99.90;;;;;;5024242;28;20026;-88
2023/07/24 14:34:12;;;;;;;0.00;0.00;;;;;;;;;;5026863;28;20497;-88
2023/07/24 14:36:38;;;;;;;0.00;0.00;;;22.40;99.90;;;;;;5031283;28;20078;-88
2023/07/24 14:39:04;;;;;;;0.00;0.00;;;21.50;99.90;;;;;;5027636;28;20033;-87
2023/07/24 14:41:30;;;;;;;0.00;0.00;;;21.50;99.90;;;;;;5026024;28;20033;-87
2023/07/24 14:43:56;;;;;;;0.00;0.00;;;;;;;;;;5019428;28;20021;-86
2023/07/24 14:46:22;;;;;;;0.00;0.00;;;;;;;;;;5029773;28;20036;-86
2023/07/24 14:48:47;;;;;;;0.00;0.00;;;22.30;99.90;;;;;;5027224;28;20462;-85
2023/07/24 14:51:13;;;;;;;0.00;0.00;;;23.10;99.90;;;;;;5015937;28;20033;-87
2023/07/24 14:53:39;;;;;;;0.00;0.00;;;22.50;99.90;;;;;;5019486;28;20175;-86
2023/07/24 14:56:04;;;;;;;0.00;0.00;;;22.30;99.90;;;;;;5003843;28;20025;-86
2023/07/24 14:58:30;;;;;;;0.00;0.00;;;;;;;;;;5025158;28;20114;-85
2023/07/24 15:00:56;;;;;;;0.00;0.00;;;22.10;99.90;;;;;;5015163;28;20033;-85
2023/07/24 15:03:22;;;;;;;0.00;0.00;;;;;;;;;;5022571;28;20087;-88
2023/07/24 15:05:48;;;;;;;0.00;0.00;;;22.20;99.90;;;;;;5013812;28;20106;-85
2023/07/24 15:08:14;;;;;;;0.00;0.00;;;;;;;;;;5008218;28;20045;-87